Dades meteomassalio
Diari Summary for Noviembre 6, 2017 Units:  Metric    English   Both
« Previous Day
Next Day »
Diari Semanal Mensual Anual Personalitzat
  Maxima: Minima: Mijana:
Temperatura: 13.9 °C 6.7 °C 9.9 °C
Rosada: 5.1 °C 0.6 °C 3 °C
Humitat: 75 % 45 % 63 %
Velocitat del vent: 61.1 km/h 18.5 km/h 40.4 km/h
Racha vent: 61.1 km/h - -
Vent:- - WSW
Pressio: 1024.3 hPa 1020.5 hPa -
Pluja: 0.0 mm    
Historical Graphs
 
 
Tabular Data for Noviembre 6, 2017
Time Temperature Dew Point Pressure Wind Wind Speed Wind Gust Humidity Rainfall Rate (Hourly) solar Conditions
00:03 10.0 °C 5.0 °C 1023.2 hPa WSW 53.7 km/h 53.7 km/h 71 % 0.0 mm 0.0 W/m2 RA
00:08 10.0 °C 4.8 °C 1022.9 hPa SSW 40.7 km/h 40.7 km/h 70 % 0.0 mm 0.0 W/m2 CLR
00:13 10.0 °C 4.8 °C 1023.2 hPa SSW 42.6 km/h 42.6 km/h 70 % 0.0 mm 0.0 W/m2 CLR
00:18 10.0 °C 4.8 °C 1023.2 hPa SW 50.0 km/h 50.0 km/h 70 % 0.0 mm 0.0 W/m2 CLR
00:23 10.0 °C 4.8 °C 1023.2 hPa SSW 37.0 km/h 37.0 km/h 70 % 0.0 mm 0.0 W/m2 CLR
00:28 10.0 °C 4.8 °C 1023.2 hPa WSW 40.7 km/h 40.7 km/h 70 % 0.0 mm 0.0 W/m2 CLR
00:33 10.0 °C 4.8 °C 1023.6 hPa SW 35.2 km/h 35.2 km/h 70 % 0.0 mm 0.0 W/m2 CLR
00:38 10.0 °C 4.8 °C 1023.6 hPa WSW 33.3 km/h 33.3 km/h 70 % 0.0 mm 0.0 W/m2 CLR
00:43 10.0 °C 4.8 °C 1023.6 hPa WSW 37.0 km/h 37.0 km/h 70 % 0.0 mm 0.0 W/m2 CLR
00:48 9.4 °C 4.4 °C 1023.6 hPa SW 38.9 km/h 38.9 km/h 71 % 0.0 mm 0.0 W/m2 CLR
00:53 9.4 °C 4.4 °C 1023.6 hPa WSW 42.6 km/h 42.6 km/h 71 % 0.0 mm 0.0 W/m2 CLR
00:58 9.4 °C 4.4 °C 1023.6 hPa SSW 31.5 km/h 31.5 km/h 71 % 0.0 mm 0.0 W/m2 CLR
01:03 9.4 °C 4.4 °C 1023.6 hPa SW 35.2 km/h 35.2 km/h 71 % 0.0 mm 0.0 W/m2 CLR
01:08 9.4 °C 4.4 °C 1023.2 hPa SW 33.3 km/h 33.3 km/h 71 % 0.0 mm 0.0 W/m2 CLR
01:13 10.0 °C 5.0 °C 1023.6 hPa SW 37.0 km/h 37.0 km/h 71 % 0.0 mm 0.0 W/m2 CLR
01:18 9.4 °C 4.7 °C 1023.6 hPa SSW 31.5 km/h 31.5 km/h 72 % 0.0 mm 0.0 W/m2 CLR
01:23 9.4 °C 4.7 °C 1023.6 hPa SW 24.1 km/h 24.1 km/h 72 % 0.0 mm 0.0 W/m2 CLR
01:28 9.4 °C 4.7 °C 1023.6 hPa WSW 45.1 km/h 45.1 km/h 72 % 0.0 mm 0.0 W/m2 CLR
01:33 9.4 °C 4.7 °C 1023.6 hPa WSW 42.6 km/h 42.6 km/h 72 % 0.0 mm 0.0 W/m2 CLR
01:38 9.4 °C 4.7 °C 1023.6 hPa SSW 33.3 km/h 33.3 km/h 72 % 0.0 mm 0.0 W/m2 CLR
01:43 9.4 °C 4.7 °C 1023.6 hPa SW 35.2 km/h 35.2 km/h 72 % 0.0 mm 0.0 W/m2 CLR
01:48 9.4 °C 4.7 °C 1023.6 hPa SW 40.7 km/h 40.7 km/h 72 % 0.0 mm 0.0 W/m2 CLR
01:53 9.4 °C 4.4 °C 1023.6 hPa SSW 35.2 km/h 35.2 km/h 71 % 0.0 mm 0.0 W/m2 CLR
02:03 9.4 °C 4.4 °C 1023.2 hPa SSW 31.5 km/h 31.5 km/h 71 % 0.0 mm 0.0 W/m2 CLR
02:08 9.4 °C 4.7 °C 1023.2 hPa SW 46.3 km/h 46.3 km/h 72 % 0.0 mm 0.0 W/m2 CLR
02:13 9.4 °C 4.7 °C 1023.2 hPa SSW 40.7 km/h 40.7 km/h 72 % 0.0 mm 0.0 W/m2 CLR
02:18 9.4 °C 4.7 °C 1023.2 hPa SW 40.7 km/h 40.7 km/h 72 % 0.0 mm 0.0 W/m2 CLR
02:23 9.4 °C 4.8 °C 1023.2 hPa SW 37.0 km/h 37.0 km/h 73 % 0.0 mm 0.0 W/m2 CLR
02:30 9.4 °C 4.8 °C 1023.2 hPa WSW 41.8 km/h 41.8 km/h 73 % 0.0 mm 0.0 W/m2 CLR
02:35 9.4 °C 4.8 °C 1023.2 hPa SW 46.3 km/h 46.3 km/h 73 % 0.0 mm 0.0 W/m2 CLR
02:37 9.4 °C 4.8 °C 1023.2 hPa SW 46.3 km/h 46.3 km/h 73 % 0.0 mm 0.0 W/m2 CLR
02:42 9.4 °C 4.8 °C 1023.2 hPa SW 37.0 km/h 37.0 km/h 73 % 0.0 mm 0.0 W/m2 CLR
02:47 8.9 °C 4.5 °C 1023.2 hPa WSW 38.9 km/h 38.9 km/h 74 % 0.0 mm 0.0 W/m2 CLR
02:52 8.9 °C 4.5 °C 1023.2 hPa SW 42.6 km/h 42.6 km/h 74 % 0.0 mm 0.0 W/m2 CLR
02:57 9.4 °C 5.1 °C 1023.2 hPa SW 46.3 km/h 46.3 km/h 74 % 0.0 mm 0.0 W/m2 CLR
03:02 8.9 °C 4.5 °C 1023.2 hPa SW 35.2 km/h 35.2 km/h 74 % 0.0 mm 0.0 W/m2 CLR
03:07 8.9 °C 4.5 °C 1023.2 hPa SSW 42.6 km/h 42.6 km/h 74 % 0.0 mm 0.0 W/m2 CLR
03:12 8.9 °C 4.5 °C 1023.2 hPa SW 38.9 km/h 38.9 km/h 74 % 0.0 mm 0.0 W/m2 CLR
03:17 8.9 °C 4.5 °C 1023.2 hPa SW 31.5 km/h 31.5 km/h 74 % 0.0 mm 0.0 W/m2 CLR
03:22 8.9 °C 4.5 °C 1023.2 hPa WSW 31.5 km/h 31.5 km/h 74 % 0.0 mm 0.0 W/m2 CLR
03:27 8.9 °C 4.7 °C 1023.2 hPa SW 29.6 km/h 29.6 km/h 75 % 0.0 mm 0.0 W/m2 CLR
03:32 8.9 °C 4.7 °C 1023.2 hPa SW 31.5 km/h 31.5 km/h 75 % 0.0 mm 0.0 W/m2 CLR
03:37 8.9 °C 4.7 °C 1023.2 hPa SW 29.6 km/h 29.6 km/h 75 % 0.0 mm 0.0 W/m2 CLR
03:42 8.9 °C 4.7 °C 1022.9 hPa SW 25.7 km/h 25.7 km/h 75 % 0.0 mm 0.0 W/m2 CLR
03:47 8.9 °C 4.7 °C 1022.9 hPa SSW 35.2 km/h 35.2 km/h 75 % 0.0 mm 0.0 W/m2 CLR
03:52 8.9 °C 4.7 °C 1022.9 hPa SSW 35.2 km/h 35.2 km/h 75 % 0.0 mm 0.0 W/m2 CLR
03:57 8.9 °C 4.5 °C 1022.9 hPa SW 29.6 km/h 29.6 km/h 74 % 0.0 mm 0.0 W/m2 CLR
04:02 8.9 °C 4.5 °C 1022.9 hPa SW 38.9 km/h 38.9 km/h 74 % 0.0 mm 0.0 W/m2 CLR
04:07 8.9 °C 4.3 °C 1022.9 hPa WSW 35.2 km/h 35.2 km/h 73 % 0.0 mm 0.0 W/m2 CLR
04:13 8.9 °C 4.3 °C 1022.9 hPa SW 42.6 km/h 42.6 km/h 73 % 0.0 mm 0.0 W/m2 CLR
04:18 8.9 °C 4.1 °C 1022.9 hPa SSW 35.2 km/h 35.2 km/h 72 % 0.0 mm 0.0 W/m2 CLR
04:20 8.9 °C 4.1 °C 1022.9 hPa SSW 37.0 km/h 37.0 km/h 72 % 0.0 mm 0.0 W/m2 CLR
04:21 8.9 °C 4.1 °C 1022.9 hPa SSW 40.7 km/h 40.7 km/h 72 % 0.0 mm 0.0 W/m2 CLR
04:24 8.9 °C 4.1 °C 1022.9 hPa WSW 38.9 km/h 38.9 km/h 72 % 0.0 mm 0.0 W/m2 CLR
04:26 8.9 °C 4.1 °C 1022.9 hPa SW 35.4 km/h 35.4 km/h 72 % 0.0 mm 0.0 W/m2 CLR
04:28 8.3 °C 3.4 °C 1022.9 hPa SSW 42.6 km/h 42.6 km/h 71 % 0.0 mm 0.0 W/m2 CLR
04:31 8.9 °C 3.9 °C 1023.2 hPa SW 40.7 km/h 40.7 km/h 71 % 0.0 mm 0.0 W/m2 CLR
04:36 8.9 °C 3.9 °C 1022.9 hPa WSW 46.7 km/h 46.7 km/h 71 % 0.0 mm 0.0 W/m2 CLR
04:41 8.9 °C 3.9 °C 1022.9 hPa SW 38.6 km/h 38.6 km/h 71 % 0.0 mm 0.0 W/m2 CLR
04:46 8.9 °C 4.1 °C 1022.9 hPa WSW 38.9 km/h 38.9 km/h 72 % 0.0 mm 0.0 W/m2 CLR
04:51 8.9 °C 4.1 °C 1022.9 hPa WSW 33.3 km/h 33.3 km/h 72 % 0.0 mm 0.0 W/m2 CLR
04:56 8.3 °C 3.6 °C 1022.9 hPa SW 46.3 km/h 46.3 km/h 72 % 0.0 mm 0.0 W/m2 CLR
05:01 8.3 °C 3.6 °C 1022.9 hPa WSW 42.6 km/h 42.6 km/h 72 % 0.0 mm 0.0 W/m2 CLR
05:06 8.9 °C 4.1 °C 1022.9 hPa SW 37.0 km/h 37.0 km/h 72 % 0.0 mm 0.0 W/m2 CLR
05:11 8.3 °C 3.6 °C 1022.9 hPa WSW 35.2 km/h 35.2 km/h 72 % 0.0 mm 0.0 W/m2 CLR
05:16 8.3 °C 3.6 °C 1023.2 hPa SW 27.8 km/h 27.8 km/h 72 % 0.0 mm 0.0 W/m2 CLR
05:21 8.3 °C 3.6 °C 1023.2 hPa SW 29.6 km/h 29.6 km/h 72 % 0.0 mm 0.0 W/m2 CLR
05:26 8.3 °C 3.6 °C 1023.2 hPa WSW 37.0 km/h 37.0 km/h 72 % 0.0 mm 0.0 W/m2 CLR
05:31 8.3 °C 3.6 °C 1023.2 hPa SW 33.3 km/h 33.3 km/h 72 % 0.0 mm 0.0 W/m2 CLR
05:36 8.3 °C 3.8 °C 1023.2 hPa SW 44.4 km/h 44.4 km/h 73 % 0.0 mm 0.0 W/m2 CLR
05:41 8.3 °C 3.8 °C 1023.2 hPa West 32.2 km/h 32.2 km/h 73 % 0.0 mm 0.0 W/m2 CLR
05:46 8.3 °C 3.6 °C 1023.2 hPa SW 38.9 km/h 38.9 km/h 72 % 0.0 mm 0.0 W/m2 CLR
05:51 8.3 °C 3.8 °C 1023.2 hPa West 40.7 km/h 40.7 km/h 73 % 0.0 mm 0.0 W/m2 CLR
05:56 8.3 °C 3.8 °C 1023.2 hPa WSW 40.7 km/h 40.7 km/h 73 % 0.0 mm 0.0 W/m2 CLR
06:01 8.3 °C 3.8 °C 1023.2 hPa SW 35.2 km/h 35.2 km/h 73 % 0.0 mm 0.0 W/m2 CLR
06:06 8.3 °C 3.8 °C 1023.2 hPa WSW 35.2 km/h 35.2 km/h 73 % 0.0 mm 0.0 W/m2 CLR
06:11 8.3 °C 3.8 °C 1023.2 hPa SW 42.6 km/h 42.6 km/h 73 % 0.0 mm 0.0 W/m2 CLR
06:16 8.3 °C 3.6 °C 1023.2 hPa SW 42.6 km/h 42.6 km/h 72 % 0.0 mm 0.0 W/m2 CLR
06:21 8.3 °C 3.6 °C 1023.6 hPa SSW 40.7 km/h 40.7 km/h 72 % 0.0 mm 0.0 W/m2 CLR
06:26 8.3 °C 3.6 °C 1023.2 hPa WSW 42.6 km/h 42.6 km/h 72 % 0.0 mm 0.0 W/m2 CLR
06:31 8.3 °C 3.6 °C 1023.2 hPa WSW 38.9 km/h 38.9 km/h 72 % 0.0 mm 0.0 W/m2 CLR
06:36 8.3 °C 3.4 °C 1023.2 hPa SW 42.6 km/h 42.6 km/h 71 % 0.0 mm 0.0 W/m2 CLR
06:41 8.3 °C 3.4 °C 1023.2 hPa SW 35.2 km/h 35.2 km/h 71 % 0.0 mm 0.0 W/m2 CLR
06:46 8.3 °C 3.4 °C 1023.2 hPa WSW 33.3 km/h 33.3 km/h 71 % 0.0 mm 0.0 W/m2 CLR
06:51 8.3 °C 3.4 °C 1023.2 hPa WSW 42.6 km/h 42.6 km/h 71 % 0.0 mm 0.0 W/m2 CLR
06:56 8.3 °C 3.4 °C 1023.2 hPa West 35.2 km/h 35.2 km/h 71 % 0.0 mm 0.0 W/m2 CLR
07:01 8.3 °C 3.4 °C 1023.2 hPa SW 46.3 km/h 46.3 km/h 71 % 0.0 mm 0.0 W/m2 CLR
07:06 8.3 °C 3.4 °C 1023.2 hPa WSW 42.6 km/h 42.6 km/h 71 % 0.0 mm 0.0 W/m2 CLR
07:11 8.3 °C 3.4 °C 1023.2 hPa WSW 40.2 km/h 40.2 km/h 71 % 0.0 mm 0.0 W/m2 CLR
07:16 8.3 °C 3.4 °C 1023.2 hPa SW 42.6 km/h 42.6 km/h 71 % 0.0 mm 0.0 W/m2 CLR
07:21 8.3 °C 3.4 °C 1023.2 hPa SW 38.9 km/h 38.9 km/h 71 % 0.0 mm 0.0 W/m2 CLR
07:26 8.3 °C 3.4 °C 1023.6 hPa SW 37.0 km/h 37.0 km/h 71 % 0.0 mm 0.0 W/m2 CLR
07:31 8.3 °C 3.4 °C 1023.6 hPa WSW 35.4 km/h 35.4 km/h 71 % 0.0 mm 0.0 W/m2 OVC
07:36 8.3 °C 3.4 °C 1023.6 hPa SW 38.9 km/h 38.9 km/h 71 % 0.0 mm 0.0 W/m2 OVC
07:41 8.3 °C 3.4 °C 1023.6 hPa SW 31.5 km/h 31.5 km/h 71 % 0.0 mm 7.0 W/m2 OVC
07:46 8.3 °C 3.4 °C 1023.6 hPa SW 40.7 km/h 40.7 km/h 71 % 0.0 mm 9.0 W/m2 OVC
07:51 8.3 °C 3.4 °C 1023.6 hPa WSW 42.6 km/h 42.6 km/h 71 % 0.0 mm 11.0 W/m2 OVC
07:56 7.8 °C 3.1 °C 1023.6 hPa WSW 46.3 km/h 46.3 km/h 72 % 0.0 mm 14.0 W/m2 OVC
08:01 8.3 °C 3.6 °C 1023.9 hPa SW 40.7 km/h 40.7 km/h 72 % 0.0 mm 16.0 W/m2 OVC
08:06 8.3 °C 3.6 °C 1023.9 hPa WSW 38.9 km/h 38.9 km/h 72 % 0.0 mm 19.0 W/m2 OVC
08:11 8.3 °C 3.4 °C 1023.9 hPa SW 42.6 km/h 42.6 km/h 71 % 0.0 mm 30.0 W/m2 OVC
08:16 8.3 °C 3.6 °C 1023.9 hPa WSW 50.0 km/h 50.0 km/h 72 % 0.0 mm 39.0 W/m2 OVC
08:21 8.3 °C 3.4 °C 1023.9 hPa WSW 55.5 km/h 55.5 km/h 71 % 0.0 mm 49.0 W/m2 OVC
08:26 8.3 °C 3.4 °C 1023.9 hPa WSW 45.1 km/h 45.1 km/h 71 % 0.0 mm 63.0 W/m2 OVC
08:31 8.3 °C 3.4 °C 1023.9 hPa SW 41.8 km/h 41.8 km/h 71 % 0.0 mm 79.0 W/m2 OVC
08:36 8.3 °C 3.4 °C 1023.9 hPa WSW 35.2 km/h 35.2 km/h 71 % 0.0 mm 93.0 W/m2 OVC
08:41 8.9 °C 3.9 °C 1023.9 hPa WSW 42.6 km/h 42.6 km/h 71 % 0.0 mm 107.0 W/m2 BKN
08:46 8.9 °C 3.7 °C 1023.9 hPa WSW 42.6 km/h 42.6 km/h 70 % 0.0 mm 113.0 W/m2 CLR
08:51 8.9 °C 3.7 °C 1023.9 hPa SW 40.7 km/h 40.7 km/h 70 % 0.0 mm 135.0 W/m2 CLR
08:56 8.9 °C 3.5 °C 1023.9 hPa SW 44.4 km/h 44.4 km/h 69 % 0.0 mm 158.0 W/m2 CLR
09:01 8.9 °C 3.5 °C 1023.9 hPa West 33.3 km/h 33.3 km/h 69 % 0.0 mm 114.0 W/m2 CLR
09:06 8.9 °C 3.3 °C 1024.3 hPa SW 42.6 km/h 42.6 km/h 68 % 0.0 mm 156.0 W/m2 CLR
09:11 9.4 °C 3.6 °C 1024.3 hPa WSW 40.7 km/h 40.7 km/h 67 % 0.0 mm 178.0 W/m2 CLR
09:16 9.4 °C 3.6 °C 1024.3 hPa West 46.3 km/h 46.3 km/h 67 % 0.0 mm 202.0 W/m2 CLR
09:21 9.4 °C 3.2 °C 1024.3 hPa WSW 55.5 km/h 55.5 km/h 65 % 0.0 mm 241.0 W/m2 CLR
09:26 9.4 °C 3.2 °C 1023.9 hPa WSW 37.0 km/h 37.0 km/h 65 % 0.0 mm 253.0 W/m2 CLR
09:31 9.4 °C 2.9 °C 1024.3 hPa WSW 40.7 km/h 40.7 km/h 64 % 0.0 mm 267.0 W/m2 CLR
09:36 10.0 °C 3.5 °C 1023.9 hPa West 53.7 km/h 53.7 km/h 64 % 0.0 mm 281.0 W/m2 CLR
09:41 10.0 °C 3.5 °C 1024.3 hPa WSW 51.5 km/h 51.5 km/h 64 % 0.0 mm 295.0 W/m2 CLR
09:46 10.0 °C 3.3 °C 1024.3 hPa WSW 43.4 km/h 43.4 km/h 63 % 0.0 mm 306.0 W/m2 CLR
09:51 10.0 °C 3.3 °C 1023.9 hPa WSW 33.8 km/h 33.8 km/h 63 % 0.0 mm 318.0 W/m2 CLR
09:56 10.6 °C 3.6 °C 1023.9 hPa WSW 51.8 km/h 51.8 km/h 62 % 0.0 mm 329.0 W/m2 CLR
10:01 10.6 °C 3.3 °C 1023.9 hPa West 48.1 km/h 48.1 km/h 61 % 0.0 mm 343.0 W/m2 CLR
10:06 10.6 °C 3.3 °C 1023.9 hPa WSW 50.0 km/h 50.0 km/h 61 % 0.0 mm 353.0 W/m2 CLR
10:11 10.6 °C 3.6 °C 1023.9 hPa WSW 50.0 km/h 50.0 km/h 62 % 0.0 mm 367.0 W/m2 CLR
10:16 11.1 °C 4.1 °C 1023.9 hPa SW 49.9 km/h 49.9 km/h 62 % 0.0 mm 381.0 W/m2 CLR
10:21 11.1 °C 3.6 °C 1023.9 hPa West 42.6 km/h 42.6 km/h 60 % 0.0 mm 383.0 W/m2 CLR
10:26 10.6 °C 3.1 °C 1023.9 hPa WSW 50.0 km/h 50.0 km/h 60 % 0.0 mm 406.0 W/m2 CLR
10:31 11.1 °C 3.9 °C 1023.9 hPa WNW 50.0 km/h 50.0 km/h 61 % 0.0 mm 417.0 W/m2 CLR
10:36 11.1 °C 3.6 °C 1023.9 hPa SSW 46.3 km/h 46.3 km/h 60 % 0.0 mm 443.0 W/m2 CLR
10:41 11.1 °C 3.2 °C 1023.9 hPa WSW 43.4 km/h 43.4 km/h 58 % 0.0 mm 438.0 W/m2 CLR
10:46 11.1 °C 3.2 °C 1023.9 hPa WSW 42.6 km/h 42.6 km/h 58 % 0.0 mm 454.0 W/m2 CLR
10:51 11.7 °C 3.4 °C 1023.9 hPa WSW 55.5 km/h 55.5 km/h 57 % 0.0 mm 478.0 W/m2 CLR
10:56 11.7 °C 3.7 °C 1024.3 hPa West 35.4 km/h 35.4 km/h 58 % 0.0 mm 563.0 W/m2 CLR
11:01 11.7 °C 3.7 °C 1023.9 hPa WSW 42.6 km/h 42.6 km/h 58 % 0.0 mm 190.0 W/m2 CLR
11:06 11.7 °C 3.2 °C 1023.9 hPa WSW 41.8 km/h 41.8 km/h 56 % 0.0 mm 510.0 W/m2 CLR
11:11 11.7 °C 3.4 °C 1023.9 hPa SW 42.6 km/h 42.6 km/h 57 % 0.0 mm 522.0 W/m2 CLR
11:16 12.2 °C 3.7 °C 1023.9 hPa SW 50.0 km/h 50.0 km/h 56 % 0.0 mm 554.0 W/m2 CLR
11:21 12.2 °C 3.7 °C 1023.9 hPa WSW 53.7 km/h 53.7 km/h 56 % 0.0 mm 573.0 W/m2 CLR
11:26 12.2 °C 3.9 °C 1023.9 hPa West 50.0 km/h 50.0 km/h 57 % 0.0 mm 613.0 W/m2 CLR
11:31 12.2 °C 3.4 °C 1023.9 hPa West 50.0 km/h 50.0 km/h 55 % 0.0 mm 211.0 W/m2 CLR
11:36 11.7 °C 3.4 °C 1023.9 hPa WSW 48.1 km/h 48.1 km/h 57 % 0.0 mm 659.0 W/m2 CLR
11:41 12.2 °C 3.7 °C 1023.9 hPa West 46.7 km/h 46.7 km/h 56 % 0.0 mm 650.0 W/m2 CLR
11:46 12.2 °C 3.9 °C 1023.9 hPa WSW 44.4 km/h 44.4 km/h 57 % 0.0 mm 155.0 W/m2 CLR
11:51 11.7 °C 3.7 °C 1023.9 hPa SW 38.9 km/h 38.9 km/h 58 % 0.0 mm 649.0 W/m2 CLR
11:56 12.2 °C 3.7 °C 1023.6 hPa WSW 42.6 km/h 42.6 km/h 56 % 0.0 mm 244.0 W/m2 CLR
12:01 12.2 °C 3.7 °C 1023.6 hPa WSW 40.7 km/h 40.7 km/h 56 % 0.0 mm 612.0 W/m2 CLR
12:06 11.7 °C 2.9 °C 1023.6 hPa West 50.0 km/h 50.0 km/h 55 % 0.0 mm 121.0 W/m2 CLR
12:11 12.2 °C 3.7 °C 1023.6 hPa SW 46.3 km/h 46.3 km/h 56 % 0.0 mm 169.0 W/m2 CLR
12:16 12.2 °C 3.7 °C 1023.6 hPa WSW 45.1 km/h 45.1 km/h 56 % 0.0 mm 272.0 W/m2 CLR
12:21 12.8 °C 3.9 °C 1023.2 hPa SW 37.0 km/h 37.0 km/h 55 % 0.0 mm 621.0 W/m2 CLR
12:26 12.2 °C 3.2 °C 1023.2 hPa West 46.3 km/h 46.3 km/h 54 % 0.0 mm 98.0 W/m2 CLR
12:31 11.7 °C 3.2 °C 1023.2 hPa West 35.2 km/h 35.2 km/h 56 % 0.0 mm 200.0 W/m2 CLR
12:36 12.2 °C 3.7 °C 1023.2 hPa WSW 51.8 km/h 51.8 km/h 56 % 0.0 mm 638.0 W/m2 CLR
12:41 12.8 °C 3.9 °C 1022.9 hPa WSW 44.4 km/h 44.4 km/h 55 % 0.0 mm 638.0 W/m2 CLR
12:46 12.8 °C 3.9 °C 1022.6 hPa West 42.6 km/h 42.6 km/h 55 % 0.0 mm 118.0 W/m2 CLR
12:51 12.2 °C 3.7 °C 1022.6 hPa WSW 50.0 km/h 50.0 km/h 56 % 0.0 mm 577.0 W/m2 CLR
12:56 12.8 °C 3.9 °C 1022.2 hPa WSW 53.7 km/h 53.7 km/h 55 % 0.0 mm 582.0 W/m2 CLR
13:01 13.3 °C 4.5 °C 1022.6 hPa WSW 38.9 km/h 38.9 km/h 55 % 0.0 mm 633.0 W/m2 CLR
13:06 13.3 °C 3.7 °C 1022.6 hPa WSW 51.8 km/h 51.8 km/h 52 % 0.0 mm 596.0 W/m2 CLR
13:11 12.8 °C 3.4 °C 1022.2 hPa SW 49.9 km/h 49.9 km/h 53 % 0.0 mm 603.0 W/m2 CLR
13:16 12.8 °C 3.4 °C 1022.6 hPa WSW 48.1 km/h 48.1 km/h 53 % 0.0 mm 109.0 W/m2 CLR
13:21 12.2 °C 3.2 °C 1022.2 hPa WSW 41.8 km/h 41.8 km/h 54 % 0.0 mm 105.0 W/m2 CLR
13:26 12.8 °C 3.7 °C 1022.2 hPa SW 50.0 km/h 50.0 km/h 54 % 0.0 mm 606.0 W/m2 CLR
13:31 12.8 °C 3.4 °C 1021.9 hPa WSW 40.2 km/h 40.2 km/h 53 % 0.0 mm 114.0 W/m2 CLR
13:36 12.8 °C 3.4 °C 1021.9 hPa West 44.4 km/h 44.4 km/h 53 % 0.0 mm 578.0 W/m2 CLR
13:41 12.8 °C 3.2 °C 1021.9 hPa West 61.1 km/h 61.1 km/h 52 % 0.0 mm 529.0 W/m2 CLR
13:46 13.3 °C 3.7 °C 1021.6 hPa WSW 48.1 km/h 48.1 km/h 52 % 0.0 mm 541.0 W/m2 CLR
13:51 13.3 °C 3.7 °C 1021.6 hPa SW 40.7 km/h 40.7 km/h 52 % 0.0 mm 520.0 W/m2 CLR
13:56 13.9 °C 3.6 °C 1021.6 hPa West 46.3 km/h 46.3 km/h 50 % 0.0 mm 522.0 W/m2 CLR
14:02 13.3 °C 3.4 °C 1021.6 hPa SW 35.2 km/h 35.2 km/h 51 % 0.0 mm 554.0 W/m2 CLR
14:06 13.3 °C 3.1 °C 1021.6 hPa WSW 35.2 km/h 35.2 km/h 50 % 0.0 mm 547.0 W/m2 CLR
14:11 13.3 °C 3.1 °C 1021.6 hPa WSW 53.7 km/h 53.7 km/h 50 % 0.0 mm 513.0 W/m2 CLR
14:17 13.3 °C 3.1 °C 1021.6 hPa West 56.3 km/h 56.3 km/h 50 % 0.0 mm 541.0 W/m2 CLR
14:21 13.9 °C 3.6 °C 1021.6 hPa SW 44.4 km/h 44.4 km/h 50 % 0.0 mm 492.0 W/m2 CLR
14:27 13.3 °C 3.1 °C 1021.6 hPa WSW 42.6 km/h 42.6 km/h 50 % 0.0 mm 483.0 W/m2 CLR
14:32 13.3 °C 2.8 °C 1021.6 hPa WSW 44.4 km/h 44.4 km/h 49 % 0.0 mm 482.0 W/m2 CLR
14:37 13.9 °C 3.6 °C 1021.6 hPa SW 55.5 km/h 55.5 km/h 50 % 0.0 mm 494.0 W/m2 CLR
14:42 13.3 °C 3.1 °C 1021.6 hPa WSW 45.1 km/h 45.1 km/h 50 % 0.0 mm 471.0 W/m2 CLR
14:47 13.3 °C 2.8 °C 1021.6 hPa WSW 51.8 km/h 51.8 km/h 49 % 0.0 mm 105.0 W/m2 CLR
14:52 13.3 °C 2.8 °C 1021.2 hPa WSW 57.4 km/h 57.4 km/h 49 % 0.0 mm 227.0 W/m2 CLR
14:57 13.3 °C 2.8 °C 1021.2 hPa WSW 35.2 km/h 35.2 km/h 49 % 0.0 mm 383.0 W/m2 CLR
15:07 13.3 °C 2.6 °C 1021.2 hPa West 42.6 km/h 42.6 km/h 48 % 0.0 mm 69.0 W/m2 CLR
15:12 12.8 °C 2.1 °C 1021.2 hPa WSW 50.0 km/h 50.0 km/h 48 % 0.0 mm 155.0 W/m2 CLR
15:17 12.8 °C 2.3 °C 1021.2 hPa WSW 44.4 km/h 44.4 km/h 49 % 0.0 mm 403.0 W/m2 CLR
15:22 13.3 °C 2.2 °C 1020.9 hPa SW 38.9 km/h 38.9 km/h 47 % 0.0 mm 387.0 W/m2 CLR
15:27 13.3 °C 2.6 °C 1020.9 hPa SW 38.9 km/h 38.9 km/h 48 % 0.0 mm 387.0 W/m2 CLR
15:32 13.3 °C 2.6 °C 1020.9 hPa SW 57.4 km/h 57.4 km/h 48 % 0.0 mm 367.0 W/m2 CLR
15:37 13.3 °C 1.9 °C 1020.9 hPa WSW 57.4 km/h 57.4 km/h 46 % 0.0 mm 339.0 W/m2 CLR
15:42 13.3 °C 1.6 °C 1020.5 hPa West 46.3 km/h 46.3 km/h 45 % 0.0 mm 318.0 W/m2 CLR
15:47 12.8 °C 1.4 °C 1020.5 hPa SW 44.4 km/h 44.4 km/h 46 % 0.0 mm 302.0 W/m2 CLR
15:48 12.8 °C 1.4 °C 1020.5 hPa WSW 46.3 km/h 46.3 km/h 46 % 0.0 mm 297.0 W/m2 CLR
15:53 13.3 °C 1.9 °C 1020.5 hPa WSW 61.1 km/h 61.1 km/h 46 % 0.0 mm 287.0 W/m2 CLR
15:58 13.3 °C 1.9 °C 1020.5 hPa WSW 57.4 km/h 57.4 km/h 46 % 0.0 mm 272.0 W/m2 CLR
16:03 12.8 °C 1.1 °C 1020.5 hPa SW 61.1 km/h 61.1 km/h 45 % 0.0 mm 250.0 W/m2 CLR
16:08 12.8 °C 1.1 °C 1020.5 hPa WSW 53.7 km/h 53.7 km/h 45 % 0.0 mm 227.0 W/m2 CLR
16:13 12.2 °C 0.9 °C 1020.5 hPa SW 56.3 km/h 56.3 km/h 46 % 0.0 mm 56.0 W/m2 CLR
16:18 12.2 °C 1.5 °C 1020.5 hPa WSW 50.0 km/h 50.0 km/h 48 % 0.0 mm 44.0 W/m2 SCT
16:23 12.2 °C 1.5 °C 1020.5 hPa West 40.2 km/h 40.2 km/h 48 % 0.0 mm 197.0 W/m2 FEW
16:28 12.2 °C 1.2 °C 1020.5 hPa WSW 40.7 km/h 40.7 km/h 47 % 0.0 mm 54.0 W/m2 CLR
16:33 12.2 °C 1.5 °C 1020.5 hPa WSW 48.3 km/h 48.3 km/h 48 % 0.0 mm 95.0 W/m2 FEW
16:35 12.2 °C 1.5 °C 1020.5 hPa WSW 48.1 km/h 48.1 km/h 48 % 0.0 mm 93.0 W/m2 FEW
16:40 11.7 °C 1.3 °C 1020.9 hPa WSW 50.0 km/h 50.0 km/h 49 % 0.0 mm 132.0 W/m2 FEW
16:45 12.2 °C 2.1 °C 1020.5 hPa WSW 50.0 km/h 50.0 km/h 50 % 0.0 mm 93.0 W/m2 FEW
16:50 11.7 °C 1.6 °C 1020.5 hPa SSW 48.1 km/h 48.1 km/h 50 % 0.0 mm 95.0 W/m2 BKN
17:00 11.7 °C 1.8 °C 1020.9 hPa SW 53.7 km/h 53.7 km/h 51 % 0.0 mm 30.0 W/m2 BKN
17:05 11.7 °C 2.1 °C 1020.9 hPa SW 51.8 km/h 51.8 km/h 52 % 0.0 mm 62.0 W/m2 SCT
17:10 11.7 °C 1.8 °C 1020.5 hPa West 57.4 km/h 57.4 km/h 51 % 0.0 mm 44.0 W/m2 BKN
17:15 11.1 °C 1.1 °C 1020.9 hPa West 46.7 km/h 46.7 km/h 50 % 0.0 mm 28.0 W/m2 BKN
17:20 11.1 °C 1.1 °C 1020.9 hPa West 40.7 km/h 40.7 km/h 50 % 0.0 mm 23.0 W/m2 BKN
17:22 11.1 °C 1.1 °C 1020.5 hPa WSW 31.5 km/h 31.5 km/h 50 % 0.0 mm 23.0 W/m2 BKN
17:27 11.1 °C 1.1 °C 1020.5 hPa WSW 48.1 km/h 48.1 km/h 50 % 0.0 mm 18.0 W/m2 BKN
17:32 11.1 °C 1.3 °C 1020.5 hPa WSW 46.3 km/h 46.3 km/h 51 % 0.0 mm 14.0 W/m2 BKN
17:37 11.1 °C 1.3 °C 1020.5 hPa West 33.3 km/h 33.3 km/h 51 % 0.0 mm 11.0 W/m2 BKN
17:42 10.6 °C 0.8 °C 1020.9 hPa SSW 33.3 km/h 33.3 km/h 51 % 0.0 mm 9.0 W/m2 BKN
17:47 10.6 °C 0.8 °C 1020.9 hPa WSW 46.3 km/h 46.3 km/h 51 % 0.0 mm 5.0 W/m2 OVC
17:52 10.6 °C 0.8 °C 1020.9 hPa West 29.6 km/h 29.6 km/h 51 % 0.0 mm 0.0 W/m2 OVC
17:57 10.6 °C 0.8 °C 1021.2 hPa WSW 48.1 km/h 48.1 km/h 51 % 0.0 mm 0.0 W/m2 OVC
18:02 10.6 °C 1.1 °C 1021.2 hPa SW 33.3 km/h 33.3 km/h 52 % 0.0 mm 0.0 W/m2 CLR
18:07 10.0 °C 0.6 °C 1021.2 hPa SW 27.8 km/h 27.8 km/h 52 % 0.0 mm 0.0 W/m2 CLR
18:12 10.6 °C 1.4 °C 1020.9 hPa West 40.2 km/h 40.2 km/h 53 % 0.0 mm 0.0 W/m2 CLR
18:17 10.0 °C 0.8 °C 1021.2 hPa WSW 42.6 km/h 42.6 km/h 53 % 0.0 mm 0.0 W/m2 CLR
18:22 10.0 °C 1.1 °C 1021.2 hPa WSW 33.3 km/h 33.3 km/h 54 % 0.0 mm 0.0 W/m2 CLR
18:27 10.0 °C 1.1 °C 1021.2 hPa WSW 27.8 km/h 27.8 km/h 54 % 0.0 mm 0.0 W/m2 CLR
18:32 10.0 °C 1.6 °C 1021.2 hPa SW 37.0 km/h 37.0 km/h 56 % 0.0 mm 0.0 W/m2 CLR
18:37 9.4 °C 1.3 °C 1021.2 hPa West 29.6 km/h 29.6 km/h 57 % 0.0 mm 0.0 W/m2 CLR
18:42 9.4 °C 1.6 °C 1021.2 hPa SW 40.7 km/h 40.7 km/h 58 % 0.0 mm 0.0 W/m2 CLR
18:47 9.4 °C 1.6 °C 1021.6 hPa WSW 35.2 km/h 35.2 km/h 58 % 0.0 mm 0.0 W/m2 CLR
18:52 9.4 °C 1.6 °C 1021.2 hPa WSW 37.0 km/h 37.0 km/h 58 % 0.0 mm 0.0 W/m2 CLR
18:53 9.4 °C 1.6 °C 1021.2 hPa WSW 37.0 km/h 37.0 km/h 58 % 0.0 mm 0.0 W/m2 CLR
18:58 9.4 °C 1.6 °C 1021.2 hPa SW 42.6 km/h 42.6 km/h 58 % 0.0 mm 0.0 W/m2 CLR
19:03 9.4 °C 1.8 °C 1021.2 hPa SW 37.0 km/h 37.0 km/h 59 % 0.0 mm 0.0 W/m2 CLR
19:08 9.4 °C 1.8 °C 1021.2 hPa SW 42.6 km/h 42.6 km/h 59 % 0.0 mm 0.0 W/m2 CLR
19:13 9.4 °C 1.8 °C 1021.2 hPa WSW 40.7 km/h 40.7 km/h 59 % 0.0 mm 0.0 W/m2 CLR
19:18 9.4 °C 1.8 °C 1021.2 hPa SW 50.0 km/h 50.0 km/h 59 % 0.0 mm 0.0 W/m2 CLR
19:23 9.4 °C 1.8 °C 1021.2 hPa SW 44.4 km/h 44.4 km/h 59 % 0.0 mm 0.0 W/m2 CLR
19:28 9.4 °C 1.8 °C 1021.2 hPa WSW 48.3 km/h 48.3 km/h 59 % 0.0 mm 0.0 W/m2 CLR
19:33 8.9 °C 1.6 °C 1021.2 hPa SW 38.9 km/h 38.9 km/h 60 % 0.0 mm 0.0 W/m2 CLR
19:38 8.9 °C 1.6 °C 1021.2 hPa WSW 42.6 km/h 42.6 km/h 60 % 0.0 mm 0.0 W/m2 CLR
19:43 8.9 °C 1.6 °C 1021.2 hPa West 38.9 km/h 38.9 km/h 60 % 0.0 mm 0.0 W/m2 CLR
19:48 8.9 °C 1.8 °C 1021.2 hPa SW 48.1 km/h 48.1 km/h 61 % 0.0 mm 0.0 W/m2 CLR
19:53 8.9 °C 1.8 °C 1021.2 hPa SW 44.4 km/h 44.4 km/h 61 % 0.0 mm 0.0 W/m2 CLR
19:58 8.9 °C 1.8 °C 1020.9 hPa SW 33.8 km/h 33.8 km/h 61 % 0.0 mm 0.0 W/m2 CLR
20:03 8.9 °C 1.8 °C 1020.9 hPa WSW 46.3 km/h 46.3 km/h 61 % 0.0 mm 0.0 W/m2 CLR
20:08 8.9 °C 1.8 °C 1020.9 hPa SW 38.9 km/h 38.9 km/h 61 % 0.0 mm 0.0 W/m2 CLR
20:13 8.3 °C 1.2 °C 1020.9 hPa SW 38.9 km/h 38.9 km/h 61 % 0.0 mm 0.0 W/m2 CLR
20:18 8.3 °C 1.2 °C 1020.9 hPa WSW 48.1 km/h 48.1 km/h 61 % 0.0 mm 0.0 W/m2 CLR
20:23 8.3 °C 1.2 °C 1020.9 hPa SW 35.2 km/h 35.2 km/h 61 % 0.0 mm 0.0 W/m2 CLR
20:28 8.3 °C 1.2 °C 1020.9 hPa SSW 42.6 km/h 42.6 km/h 61 % 0.0 mm 0.0 W/m2 CLR
20:33 8.3 °C 1.2 °C 1020.5 hPa West 37.0 km/h 37.0 km/h 61 % 0.0 mm 0.0 W/m2 CLR
20:38 8.3 °C 1.2 °C 1020.5 hPa WSW 31.5 km/h 31.5 km/h 61 % 0.0 mm 0.0 W/m2 CLR
20:43 8.3 °C 1.4 °C 1020.5 hPa WSW 49.9 km/h 49.9 km/h 62 % 0.0 mm 0.0 W/m2 CLR
20:48 8.3 °C 1.4 °C 1020.9 hPa SW 37.0 km/h 37.0 km/h 62 % 0.0 mm 0.0 W/m2 CLR
20:53 8.3 °C 1.4 °C 1021.2 hPa SSW 22.2 km/h 22.2 km/h 62 % 0.0 mm 0.0 W/m2 CLR
20:58 8.3 °C 1.7 °C 1021.6 hPa SW 29.6 km/h 29.6 km/h 63 % 0.0 mm 0.0 W/m2 CLR
21:03 7.8 °C 1.2 °C 1021.6 hPa WSW 31.5 km/h 31.5 km/h 63 % 0.0 mm 0.0 W/m2 CLR
21:08 7.8 °C 1.4 °C 1021.6 hPa WSW 33.3 km/h 33.3 km/h 64 % 0.0 mm 0.0 W/m2 CLR
21:13 7.8 °C 1.4 °C 1021.6 hPa SW 31.5 km/h 31.5 km/h 64 % 0.0 mm 0.0 W/m2 CLR
21:18 7.8 °C 1.6 °C 1021.2 hPa SW 33.8 km/h 33.8 km/h 65 % 0.0 mm 0.0 W/m2 CLR
21:23 7.8 °C 1.6 °C 1021.6 hPa WSW 31.5 km/h 31.5 km/h 65 % 0.0 mm 0.0 W/m2 CLR
21:33 7.8 °C 1.6 °C 1021.9 hPa SW 20.4 km/h 20.4 km/h 65 % 0.0 mm 0.0 W/m2 CLR
21:38 7.8 °C 1.6 °C 1021.6 hPa WSW 24.1 km/h 24.1 km/h 65 % 0.0 mm 0.0 W/m2 CLR
21:43 7.8 °C 1.6 °C 1021.6 hPa WSW 29.0 km/h 29.0 km/h 65 % 0.0 mm 0.0 W/m2 CLR
21:48 7.8 °C 1.6 °C 1021.6 hPa WSW 33.3 km/h 33.3 km/h 65 % 0.0 mm 0.0 W/m2 CLR
21:53 7.8 °C 1.6 °C 1021.6 hPa SW 38.6 km/h 38.6 km/h 65 % 0.0 mm 0.0 W/m2 CLR
21:58 7.8 °C 1.6 °C 1021.6 hPa SW 29.6 km/h 29.6 km/h 65 % 0.0 mm 0.0 W/m2 CLR
22:08 7.2 °C 1.3 °C 1021.9 hPa WSW 25.9 km/h 25.9 km/h 66 % 0.0 mm 0.0 W/m2 CLR
22:13 7.2 °C 1.3 °C 1021.9 hPa WSW 29.6 km/h 29.6 km/h 66 % 0.0 mm 0.0 W/m2 CLR
22:18 7.2 °C 1.3 °C 1021.6 hPa SW 24.1 km/h 24.1 km/h 66 % 0.0 mm 0.0 W/m2 CLR
22:23 7.2 °C 1.5 °C 1021.9 hPa SW 22.2 km/h 22.2 km/h 67 % 0.0 mm 0.0 W/m2 CLR
22:28 7.2 °C 1.5 °C 1021.9 hPa SW 18.5 km/h 18.5 km/h 67 % 0.0 mm 0.0 W/m2 CLR
22:33 7.2 °C 1.5 °C 1022.2 hPa SW 20.9 km/h 20.9 km/h 67 % 0.0 mm 0.0 W/m2 CLR
22:38 7.2 °C 1.7 °C 1022.2 hPa SW 27.8 km/h 27.8 km/h 68 % 0.0 mm 0.0 W/m2 CLR
22:43 7.2 °C 1.7 °C 1021.9 hPa WSW 30.6 km/h 30.6 km/h 68 % 0.0 mm 0.0 W/m2 CLR
22:48 7.2 °C 1.7 °C 1021.9 hPa SW 22.2 km/h 22.2 km/h 68 % 0.0 mm 0.0 W/m2 CLR
22:53 7.2 °C 1.9 °C 1021.9 hPa SW 25.9 km/h 25.9 km/h 69 % 0.0 mm 0.0 W/m2 CLR
22:58 6.7 °C 1.4 °C 1021.9 hPa West 29.6 km/h 29.6 km/h 69 % 0.0 mm 0.0 W/m2 CLR
23:03 6.7 °C 1.4 °C 1021.9 hPa SW 25.9 km/h 25.9 km/h 69 % 0.0 mm 0.0 W/m2 CLR
23:08 6.7 °C 1.4 °C 1021.9 hPa WSW 31.5 km/h 31.5 km/h 69 % 0.0 mm 0.0 W/m2 CLR
23:13 6.7 °C 1.4 °C 1021.6 hPa SW 27.4 km/h 27.4 km/h 69 % 0.0 mm 0.0 W/m2 CLR
23:18 6.7 °C 1.4 °C 1021.9 hPa SW 25.7 km/h 25.7 km/h 69 % 0.0 mm 0.0 W/m2 CLR
23:23 6.7 °C 1.4 °C 1021.9 hPa SW 27.8 km/h 27.8 km/h 69 % 0.0 mm 0.0 W/m2 CLR
23:28 6.7 °C 1.4 °C 1021.9 hPa SW 24.1 km/h 24.1 km/h 69 % 0.0 mm 0.0 W/m2 CLR
23:33 6.7 °C 1.4 °C 1021.6 hPa SW 24.1 km/h 24.1 km/h 69 % 0.0 mm 0.0 W/m2 CLR
23:38 6.7 °C 1.6 °C 1021.6 hPa SW 29.6 km/h 29.6 km/h 70 % 0.0 mm 0.0 W/m2 CLR
23:44 6.7 °C 1.6 °C 1021.9 hPa SW 31.5 km/h 31.5 km/h 70 % 0.0 mm 0.0 W/m2 CLR
23:49 6.7 °C 1.6 °C 1021.6 hPa SW 31.5 km/h 31.5 km/h 70 % 0.0 mm 0.0 W/m2 CLR
23:54 6.7 °C 1.4 °C 1021.6 hPa SW 37.0 km/h 37.0 km/h 69 % 0.0 mm 0.0 W/m2 CLR
23:59 6.7 °C 1.4 °C 1021.6 hPa SW 29.6 km/h 29.6 km/h 69 % 0.0 mm 0.0 W/m2 CLR
Lo Temps de Massalio
Compliments of Weather Underground - 1.25 mb